sensor_id;sensor_type;location;lat;lon;timestamp;P1;durP1;ratioP1;P2;durP2;ratioP2
43620;SDS011;29213;50.770;7.298;2023-07-29T00:00:19;2.15;;;0.93;;
43620;SDS011;29213;50.770;7.298;2023-07-29T00:02:45;3.55;;;1.20;;
43620;SDS011;29213;50.770;7.298;2023-07-29T00:05:10;2.85;;;1.10;;
43620;SDS011;29213;50.770;7.298;2023-07-29T00:07:36;3.10;;;1.25;;
43620;SDS011;29213;50.770;7.298;2023-07-29T00:10:02;2.97;;;1.10;;
43620;SDS011;29213;50.770;7.298;2023-07-29T00:12:28;3.33;;;1.20;;
43620;SDS011;29213;50.770;7.298;2023-07-29T00:14:54;1.98;;;1.17;;
43620;SDS011;29213;50.770;7.298;2023-07-29T00:17:19;2.97;;;1.08;;
43620;SDS011;29213;50.770;7.298;2023-07-29T00:19:46;1.75;;;1.10;;
43620;SDS011;29213;50.770;7.298;2023-07-29T00:22:11;4.95;;;1.30;;
43620;SDS011;29213;50.770;7.298;2023-07-29T00:24:37;3.55;;;1.20;;
43620;SDS011;29213;50.770;7.298;2023-07-29T00:27:02;2.70;;;1.20;;
43620;SDS011;29213;50.770;7.298;2023-07-29T00:29:28;3.35;;;1.40;;
43620;SDS011;29213;50.770;7.298;2023-07-29T00:31:53;3.25;;;1.02;;
43620;SDS011;29213;50.770;7.298;2023-07-29T00:34:19;3.40;;;1.10;;
43620;SDS011;29213;50.770;7.298;2023-07-29T00:36:45;3.30;;;1.15;;
43620;SDS011;29213;50.770;7.298;2023-07-29T00:39:11;1.92;;;0.98;;
43620;SDS011;29213;50.770;7.298;2023-07-29T00:41:36;2.05;;;1.02;;
43620;SDS011;29213;50.770;7.298;2023-07-29T00:44:02;2.42;;;1.20;;
43620;SDS011;29213;50.770;7.298;2023-07-29T00:46:28;4.22;;;1.20;;
43620;SDS011;29213;50.770;7.298;2023-07-29T00:48:54;1.95;;;1.00;;
43620;SDS011;29213;50.770;7.298;2023-07-29T00:51:20;2.75;;;1.13;;
43620;SDS011;29213;50.770;7.298;2023-07-29T00:53:46;4.18;;;1.20;;
43620;SDS011;29213;50.770;7.298;2023-07-29T00:56:12;5.55;;;1.10;;
43620;SDS011;29213;50.770;7.298;2023-07-29T00:58:38;4.55;;;1.10;;
43620;SDS011;29213;50.770;7.298;2023-07-29T01:01:03;4.63;;;1.65;;
43620;SDS011;29213;50.770;7.298;2023-07-29T01:03:29;2.72;;;1.30;;
43620;SDS011;29213;50.770;7.298;2023-07-29T01:05:59;3.00;;;1.15;;
43620;SDS011;29213;50.770;7.298;2023-07-29T01:08:38;2.40;;;1.27;;
43620;SDS011;29213;50.770;7.298;2023-07-29T01:11:48;2.10;;;1.00;;
43620;SDS011;29213;50.770;7.298;2023-07-29T01:14:26;2.33;;;1.20;;
43620;SDS011;29213;50.770;7.298;2023-07-29T01:17:03;3.05;;;1.20;;
43620;SDS011;29213;50.770;7.298;2023-07-29T01:22:31;2.53;;;1.10;;
43620;SDS011;29213;50.770;7.298;2023-07-29T01:24:58;4.30;;;1.20;;
43620;SDS011;29213;50.770;7.298;2023-07-29T01:27:24;2.30;;;1.10;;
43620;SDS011;29213;50.770;7.298;2023-07-29T01:29:49;2.25;;;1.08;;
43620;SDS011;29213;50.770;7.298;2023-07-29T01:35:05;2.08;;;1.00;;
43620;SDS011;29213;50.770;7.298;2023-07-29T01:37:35;2.20;;;1.13;;
43620;SDS011;29213;50.770;7.298;2023-07-29T01:40:03;2.03;;;1.10;;
43620;SDS011;29213;50.770;7.298;2023-07-29T01:42:30;3.10;;;1.08;;
43620;SDS011;29213;50.770;7.298;2023-07-29T01:44:56;2.47;;;1.05;;
43620;SDS011;29213;50.770;7.298;2023-07-29T01:47:22;3.67;;;1.30;;
43620;SDS011;29213;50.770;7.298;2023-07-29T01:49:47;1.88;;;1.10;;
43620;SDS011;29213;50.770;7.298;2023-07-29T01:52:13;4.07;;;1.00;;
43620;SDS011;29213;50.770;7.298;2023-07-29T01:54:38;2.40;;;1.13;;
43620;SDS011;29213;50.770;7.298;2023-07-29T01:57:04;1.92;;;1.02;;
43620;SDS011;29213;50.770;7.298;2023-07-29T01:59:29;2.15;;;1.05;;
43620;SDS011;29213;50.770;7.298;2023-07-29T02:01:54;3.17;;;1.33;;
43620;SDS011;29213;50.770;7.298;2023-07-29T02:04:20;2.38;;;1.00;;
43620;SDS011;29213;50.770;7.298;2023-07-29T02:06:45;1.98;;;1.02;;
43620;SDS011;29213;50.770;7.298;2023-07-29T02:09:11;1.50;;;0.90;;
43620;SDS011;29213;50.770;7.298;2023-07-29T02:11:36;3.90;;;1.40;;
43620;SDS011;29213;50.770;7.298;2023-07-29T02:14:01;2.63;;;1.08;;
43620;SDS011;29213;50.770;7.298;2023-07-29T02:16:27;5.00;;;1.30;;
43620;SDS011;29213;50.770;7.298;2023-07-29T02:18:52;4.97;;;1.40;;
43620;SDS011;29213;50.770;7.298;2023-07-29T02:21:17;2.97;;;1.15;;
43620;SDS011;29213;50.770;7.298;2023-07-29T02:23:43;2.67;;;1.10;;
43620;SDS011;29213;50.770;7.298;2023-07-29T02:26:08;3.30;;;1.20;;
43620;SDS011;29213;50.770;7.298;2023-07-29T02:28:34;3.45;;;1.20;;
43620;SDS011;29213;50.770;7.298;2023-07-29T02:31:16;3.05;;;1.00;;
43620;SDS011;29213;50.770;7.298;2023-07-29T02:33:48;2.90;;;1.02;;
43620;SDS011;29213;50.770;7.298;2023-07-29T02:36:14;2.28;;;1.20;;
43620;SDS011;29213;50.770;7.298;2023-07-29T02:38:40;3.20;;;1.10;;
43620;SDS011;29213;50.770;7.298;2023-07-29T02:41:07;4.07;;;1.13;;
43620;SDS011;29213;50.770;7.298;2023-07-29T02:43:34;2.22;;;1.10;;
43620;SDS011;29213;50.770;7.298;2023-07-29T02:46:00;2.05;;;1.00;;
43620;SDS011;29213;50.770;7.298;2023-07-29T02:48:26;3.17;;;1.17;;
43620;SDS011;29213;50.770;7.298;2023-07-29T02:50:51;2.05;;;0.93;;
43620;SDS011;29213;50.770;7.298;2023-07-29T02:53:17;2.60;;;1.10;;
43620;SDS011;29213;50.770;7.298;2023-07-29T02:55:42;2.08;;;1.20;;
43620;SDS011;29213;50.770;7.298;2023-07-29T02:58:07;3.58;;;0.98;;
43620;SDS011;29213;50.770;7.298;2023-07-29T03:00:33;2.35;;;1.00;;
43620;SDS011;29213;50.770;7.298;2023-07-29T03:02:59;2.85;;;1.00;;
43620;SDS011;29213;50.770;7.298;2023-07-29T03:05:26;1.58;;;0.93;;
43620;SDS011;29213;50.770;7.298;2023-07-29T03:07:52;2.42;;;1.10;;
43620;SDS011;29213;50.770;7.298;2023-07-29T03:10:17;2.05;;;0.90;;
43620;SDS011;29213;50.770;7.298;2023-07-29T03:12:43;1.80;;;1.00;;
43620;SDS011;29213;50.770;7.298;2023-07-29T03:15:08;2.28;;;1.05;;
43620;SDS011;29213;50.770;7.298;2023-07-29T03:17:34;3.20;;;1.00;;
43620;SDS011;29213;50.770;7.298;2023-07-29T03:19:59;2.70;;;1.00;;
43620;SDS011;29213;50.770;7.298;2023-07-29T03:22:25;2.22;;;1.00;;
43620;SDS011;29213;50.770;7.298;2023-07-29T03:24:50;2.47;;;0.90;;
43620;SDS011;29213;50.770;7.298;2023-07-29T03:27:15;3.33;;;1.30;;
43620;SDS011;29213;50.770;7.298;2023-07-29T03:29:41;2.08;;;1.00;;
43620;SDS011;29213;50.770;7.298;2023-07-29T03:32:07;2.20;;;0.98;;
43620;SDS011;29213;50.770;7.298;2023-07-29T03:34:33;2.72;;;1.27;;
43620;SDS011;29213;50.770;7.298;2023-07-29T03:36:59;2.72;;;1.05;;
43620;SDS011;29213;50.770;7.298;2023-07-29T03:39:25;5.47;;;1.00;;
43620;SDS011;29213;50.770;7.298;2023-07-29T03:41:51;3.70;;;1.08;;
43620;SDS011;29213;50.770;7.298;2023-07-29T03:44:17;3.45;;;1.20;;
43620;SDS011;29213;50.770;7.298;2023-07-29T03:46:43;2.00;;;1.00;;
43620;SDS011;29213;50.770;7.298;2023-07-29T03:49:09;2.78;;;1.15;;
43620;SDS011;29213;50.770;7.298;2023-07-29T03:51:34;1.92;;;1.00;;
43620;SDS011;29213;50.770;7.298;2023-07-29T03:54:00;2.50;;;1.10;;
43620;SDS011;29213;50.770;7.298;2023-07-29T03:56:25;2.50;;;1.20;;
43620;SDS011;29213;50.770;7.298;2023-07-29T03:58:52;2.63;;;1.20;;
43620;SDS011;29213;50.770;7.298;2023-07-29T04:01:18;2.95;;;1.30;;
43620;SDS011;29213;50.770;7.298;2023-07-29T04:03:44;2.53;;;1.20;;
43620;SDS011;29213;50.770;7.298;2023-07-29T04:06:11;3.05;;;1.20;;
43620;SDS011;29213;50.770;7.298;2023-07-29T04:08:36;2.97;;;1.55;;
43620;SDS011;29213;50.770;7.298;2023-07-29T04:11:02;5.30;;;1.73;;
43620;SDS011;29213;50.770;7.298;2023-07-29T04:13:27;2.90;;;1.33;;
43620;SDS011;29213;50.770;7.298;2023-07-29T04:15:53;3.38;;;1.20;;
43620;SDS011;29213;50.770;7.298;2023-07-29T04:18:18;2.13;;;1.10;;
43620;SDS011;29213;50.770;7.298;2023-07-29T04:20:44;4.35;;;1.20;;
43620;SDS011;29213;50.770;7.298;2023-07-29T04:23:09;2.38;;;1.10;;
43620;SDS011;29213;50.770;7.298;2023-07-29T04:25:34;2.47;;;1.00;;
43620;SDS011;29213;50.770;7.298;2023-07-29T04:28:00;2.60;;;1.05;;
43620;SDS011;29213;50.770;7.298;2023-07-29T04:30:25;2.42;;;1.10;;
43620;SDS011;29213;50.770;7.298;2023-07-29T04:32:51;2.63;;;1.10;;
43620;SDS011;29213;50.770;7.298;2023-07-29T04:35:16;2.25;;;0.98;;
43620;SDS011;29213;50.770;7.298;2023-07-29T04:37:42;2.30;;;1.08;;
43620;SDS011;29213;50.770;7.298;2023-07-29T04:40:07;2.65;;;1.23;;
43620;SDS011;29213;50.770;7.298;2023-07-29T04:42:33;3.25;;;1.00;;
43620;SDS011;29213;50.770;7.298;2023-07-29T04:44:58;2.50;;;1.10;;
43620;SDS011;29213;50.770;7.298;2023-07-29T04:47:24;1.83;;;1.00;;
43620;SDS011;29213;50.770;7.298;2023-07-29T04:49:49;1.60;;;0.90;;
43620;SDS011;29213;50.770;7.298;2023-07-29T04:52:14;2.15;;;0.90;;
43620;SDS011;29213;50.770;7.298;2023-07-29T04:54:40;2.50;;;1.10;;
43620;SDS011;29213;50.770;7.298;2023-07-29T04:57:06;2.80;;;1.05;;
43620;SDS011;29213;50.770;7.298;2023-07-29T04:59:31;2.38;;;0.90;;
43620;SDS011;29213;50.770;7.298;2023-07-29T05:01:57;3.53;;;0.90;;
43620;SDS011;29213;50.770;7.298;2023-07-29T05:04:22;1.92;;;0.80;;
43620;SDS011;29213;50.770;7.298;2023-07-29T05:06:48;2.00;;;1.05;;
43620;SDS011;29213;50.770;7.298;2023-07-29T05:09:17;1.70;;;0.80;;
43620;SDS011;29213;50.770;7.298;2023-07-29T05:11:44;2.58;;;1.00;;
43620;SDS011;29213;50.770;7.298;2023-07-29T05:14:12;3.17;;;0.90;;
43620;SDS011;29213;50.770;7.298;2023-07-29T05:16:38;2.53;;;0.90;;
43620;SDS011;29213;50.770;7.298;2023-07-29T05:19:04;2.13;;;1.10;;
43620;SDS011;29213;50.770;7.298;2023-07-29T05:21:29;2.03;;;1.05;;
43620;SDS011;29213;50.770;7.298;2023-07-29T05:23:55;2.60;;;1.23;;
43620;SDS011;29213;50.770;7.298;2023-07-29T05:26:20;2.42;;;1.20;;
43620;SDS011;29213;50.770;7.298;2023-07-29T05:28:45;1.88;;;1.00;;
43620;SDS011;29213;50.770;7.298;2023-07-29T05:31:11;2.22;;;1.10;;
43620;SDS011;29213;50.770;7.298;2023-07-29T05:33:36;3.28;;;1.10;;
43620;SDS011;29213;50.770;7.298;2023-07-29T05:36:02;5.30;;;1.10;;
43620;SDS011;29213;50.770;7.298;2023-07-29T05:38:27;2.58;;;1.27;;
43620;SDS011;29213;50.770;7.298;2023-07-29T05:40:53;3.05;;;1.10;;
43620;SDS011;29213;50.770;7.298;2023-07-29T05:43:18;2.78;;;0.80;;
43620;SDS011;29213;50.770;7.298;2023-07-29T05:45:43;1.85;;;0.90;;
43620;SDS011;29213;50.770;7.298;2023-07-29T05:48:09;1.63;;;0.93;;
43620;SDS011;29213;50.770;7.298;2023-07-29T05:50:34;3.00;;;1.10;;
43620;SDS011;29213;50.770;7.298;2023-07-29T05:53:00;1.90;;;1.00;;
43620;SDS011;29213;50.770;7.298;2023-07-29T05:55:25;1.80;;;0.90;;
43620;SDS011;29213;50.770;7.298;2023-07-29T05:57:50;1.77;;;0.90;;
43620;SDS011;29213;50.770;7.298;2023-07-29T06:00:16;2.20;;;0.95;;
43620;SDS011;29213;50.770;7.298;2023-07-29T06:02:41;1.80;;;0.90;;
43620;SDS011;29213;50.770;7.298;2023-07-29T06:05:07;2.08;;;1.08;;
43620;SDS011;29213;50.770;7.298;2023-07-29T06:07:32;2.75;;;1.02;;
43620;SDS011;29213;50.770;7.298;2023-07-29T06:09:59;2.17;;;0.90;;
43620;SDS011;29213;50.770;7.298;2023-07-29T06:12:25;1.70;;;0.95;;
43620;SDS011;29213;50.770;7.298;2023-07-29T06:14:50;2.65;;;1.00;;
43620;SDS011;29213;50.770;7.298;2023-07-29T06:17:15;2.40;;;1.20;;
43620;SDS011;29213;50.770;7.298;2023-07-29T06:19:41;2.97;;;1.17;;
43620;SDS011;29213;50.770;7.298;2023-07-29T06:22:06;1.83;;;1.00;;
43620;SDS011;29213;50.770;7.298;2023-07-29T06:24:32;2.22;;;1.00;;
43620;SDS011;29213;50.770;7.298;2023-07-29T06:26:58;1.98;;;1.00;;
43620;SDS011;29213;50.770;7.298;2023-07-29T06:29:23;1.88;;;0.98;;
43620;SDS011;29213;50.770;7.298;2023-07-29T06:31:49;2.72;;;0.90;;
43620;SDS011;29213;50.770;7.298;2023-07-29T06:34:16;2.50;;;1.00;;
43620;SDS011;29213;50.770;7.298;2023-07-29T06:36:42;1.92;;;0.82;;
43620;SDS011;29213;50.770;7.298;2023-07-29T06:39:07;2.45;;;1.20;;
43620;SDS011;29213;50.770;7.298;2023-07-29T06:41:33;2.92;;;1.13;;
43620;SDS011;29213;50.770;7.298;2023-07-29T06:43:58;3.08;;;1.08;;
43620;SDS011;29213;50.770;7.298;2023-07-29T06:46:24;3.38;;;1.25;;
43620;SDS011;29213;50.770;7.298;2023-07-29T06:48:49;1.75;;;0.90;;
43620;SDS011;29213;50.770;7.298;2023-07-29T06:51:15;2.22;;;1.20;;
43620;SDS011;29213;50.770;7.298;2023-07-29T06:53:40;2.47;;;1.00;;
43620;SDS011;29213;50.770;7.298;2023-07-29T06:56:05;2.60;;;1.15;;
43620;SDS011;29213;50.770;7.298;2023-07-29T06:58:31;3.00;;;1.20;;
43620;SDS011;29213;50.770;7.298;2023-07-29T07:00:56;2.33;;;1.20;;
43620;SDS011;29213;50.770;7.298;2023-07-29T07:03:23;2.85;;;1.10;;
43620;SDS011;29213;50.770;7.298;2023-07-29T07:05:48;2.88;;;1.38;;
43620;SDS011;29213;50.770;7.298;2023-07-29T07:08:14;2.90;;;1.27;;
43620;SDS011;29213;50.770;7.298;2023-07-29T07:10:39;2.35;;;1.25;;
43620;SDS011;29213;50.770;7.298;2023-07-29T07:13:04;2.10;;;1.20;;
43620;SDS011;29213;50.770;7.298;2023-07-29T07:15:30;2.65;;;1.40;;
43620;SDS011;29213;50.770;7.298;2023-07-29T07:17:55;3.15;;;1.60;;
43620;SDS011;29213;50.770;7.298;2023-07-29T07:20:21;3.00;;;1.40;;
43620;SDS011;29213;50.770;7.298;2023-07-29T07:22:46;3.08;;;1.35;;
43620;SDS011;29213;50.770;7.298;2023-07-29T07:25:12;3.00;;;1.50;;
43620;SDS011;29213;50.770;7.298;2023-07-29T07:27:37;3.10;;;1.40;;
43620;SDS011;29213;50.770;7.298;2023-07-29T07:30:03;3.60;;;1.75;;
43620;SDS011;29213;50.770;7.298;2023-07-29T07:32:28;3.92;;;1.80;;
43620;SDS011;29213;50.770;7.298;2023-07-29T07:34:54;2.97;;;1.80;;
43620;SDS011;29213;50.770;7.298;2023-07-29T07:37:19;3.30;;;2.00;;
43620;SDS011;29213;50.770;7.298;2023-07-29T07:39:44;3.78;;;2.03;;
43620;SDS011;29213;50.770;7.298;2023-07-29T07:42:10;3.75;;;2.08;;
43620;SDS011;29213;50.770;7.298;2023-07-29T07:44:35;4.13;;;2.10;;
43620;SDS011;29213;50.770;7.298;2023-07-29T07:47:01;3.40;;;1.70;;
43620;SDS011;29213;50.770;7.298;2023-07-29T07:49:26;2.55;;;1.45;;
43620;SDS011;29213;50.770;7.298;2023-07-29T07:51:51;2.83;;;1.50;;
43620;SDS011;29213;50.770;7.298;2023-07-29T07:54:17;2.72;;;1.42;;
43620;SDS011;29213;50.770;7.298;2023-07-29T07:56:42;2.80;;;1.70;;
43620;SDS011;29213;50.770;7.298;2023-07-29T07:59:08;2.60;;;1.60;;
43620;SDS011;29213;50.770;7.298;2023-07-29T08:01:38;2.97;;;1.30;;
43620;SDS011;29213;50.770;7.298;2023-07-29T08:04:04;2.75;;;1.55;;
43620;SDS011;29213;50.770;7.298;2023-07-29T08:06:30;3.42;;;1.65;;
43620;SDS011;29213;50.770;7.298;2023-07-29T08:08:56;3.47;;;1.73;;
43620;SDS011;29213;50.770;7.298;2023-07-29T08:11:22;2.70;;;1.48;;
43620;SDS011;29213;50.770;7.298;2023-07-29T08:13:48;2.53;;;1.45;;
43620;SDS011;29213;50.770;7.298;2023-07-29T08:16:13;3.05;;;1.60;;
43620;SDS011;29213;50.770;7.298;2023-07-29T08:18:39;2.80;;;1.40;;
43620;SDS011;29213;50.770;7.298;2023-07-29T08:21:04;2.42;;;1.30;;
43620;SDS011;29213;50.770;7.298;2023-07-29T08:23:31;2.80;;;1.20;;
43620;SDS011;29213;50.770;7.298;2023-07-29T08:25:58;3.10;;;1.30;;
43620;SDS011;29213;50.770;7.298;2023-07-29T08:28:34;2.40;;;1.30;;
43620;SDS011;29213;50.770;7.298;2023-07-29T08:31:01;2.63;;;1.40;;
43620;SDS011;29213;50.770;7.298;2023-07-29T08:33:27;3.15;;;1.10;;
43620;SDS011;29213;50.770;7.298;2023-07-29T08:35:53;3.38;;;1.25;;
43620;SDS011;29213;50.770;7.298;2023-07-29T08:38:19;2.88;;;1.40;;
43620;SDS011;29213;50.770;7.298;2023-07-29T08:40:57;2.45;;;1.25;;
43620;SDS011;29213;50.770;7.298;2023-07-29T08:43:29;4.22;;;1.40;;
43620;SDS011;29213;50.770;7.298;2023-07-29T08:45:57;3.03;;;1.30;;
43620;SDS011;29213;50.770;7.298;2023-07-29T08:48:23;3.10;;;1.45;;
43620;SDS011;29213;50.770;7.298;2023-07-29T08:50:58;2.85;;;1.30;;
43620;SDS011;29213;50.770;7.298;2023-07-29T08:53:26;3.33;;;1.58;;
43620;SDS011;29213;50.770;7.298;2023-07-29T08:55:52;3.72;;;1.30;;
43620;SDS011;29213;50.770;7.298;2023-07-29T08:58:20;3.50;;;1.40;;
43620;SDS011;29213;50.770;7.298;2023-07-29T09:00:47;2.35;;;1.23;;
43620;SDS011;29213;50.770;7.298;2023-07-29T09:03:13;2.40;;;1.20;;
43620;SDS011;29213;50.770;7.298;2023-07-29T09:05:38;2.88;;;1.27;;
43620;SDS011;29213;50.770;7.298;2023-07-29T09:08:04;2.50;;;1.15;;
43620;SDS011;29213;50.770;7.298;2023-07-29T09:10:30;4.25;;;1.40;;
43620;SDS011;29213;50.770;7.298;2023-07-29T09:13:00;2.33;;;1.27;;
43620;SDS011;29213;50.770;7.298;2023-07-29T09:15:28;3.10;;;1.60;;
43620;SDS011;29213;50.770;7.298;2023-07-29T09:17:55;2.53;;;1.40;;
43620;SDS011;29213;50.770;7.298;2023-07-29T09:20:25;3.47;;;1.38;;
43620;SDS011;29213;50.770;7.298;2023-07-29T09:22:52;2.90;;;1.38;;
43620;SDS011;29213;50.770;7.298;2023-07-29T09:25:26;2.33;;;1.23;;
43620;SDS011;29213;50.770;7.298;2023-07-29T09:27:58;3.10;;;1.40;;
43620;SDS011;29213;50.770;7.298;2023-07-29T09:30:24;2.35;;;1.20;;
43620;SDS011;29213;50.770;7.298;2023-07-29T09:32:57;2.47;;;1.30;;
43620;SDS011;29213;50.770;7.298;2023-07-29T09:35:23;2.60;;;1.40;;
43620;SDS011;29213;50.770;7.298;2023-07-29T09:37:50;2.85;;;1.50;;
43620;SDS011;29213;50.770;7.298;2023-07-29T09:40:17;2.50;;;1.20;;
43620;SDS011;29213;50.770;7.298;2023-07-29T09:42:47;2.50;;;1.33;;
43620;SDS011;29213;50.770;7.298;2023-07-29T09:45:21;2.40;;;1.30;;
43620;SDS011;29213;50.770;7.298;2023-07-29T09:47:48;2.35;;;1.17;;
43620;SDS011;29213;50.770;7.298;2023-07-29T09:50:13;2.67;;;1.25;;
43620;SDS011;29213;50.770;7.298;2023-07-29T09:52:39;2.70;;;1.20;;
43620;SDS011;29213;50.770;7.298;2023-07-29T09:55:04;2.30;;;1.10;;
43620;SDS011;29213;50.770;7.298;2023-07-29T09:57:31;2.38;;;1.35;;
43620;SDS011;29213;50.770;7.298;2023-07-29T09:59:57;2.78;;;1.35;;
43620;SDS011;29213;50.770;7.298;2023-07-29T10:02:23;2.20;;;1.25;;
43620;SDS011;29213;50.770;7.298;2023-07-29T10:04:50;2.35;;;1.20;;
43620;SDS011;29213;50.770;7.298;2023-07-29T10:07:17;3.17;;;1.25;;
43620;SDS011;29213;50.770;7.298;2023-07-29T10:09:44;2.38;;;1.27;;
43620;SDS011;29213;50.770;7.298;2023-07-29T10:12:10;2.00;;;1.15;;
43620;SDS011;29213;50.770;7.298;2023-07-29T10:14:39;2.10;;;1.20;;
43620;SDS011;29213;50.770;7.298;2023-07-29T10:17:05;3.70;;;1.40;;
43620;SDS011;29213;50.770;7.298;2023-07-29T10:19:31;7.60;;;5.20;;
43620;SDS011;29213;50.770;7.298;2023-07-29T10:21:58;76.45;;;51.67;;
43620;SDS011;29213;50.770;7.298;2023-07-29T10:24:31;119.10;;;83.35;;
43620;SDS011;29213;50.770;7.298;2023-07-29T10:26:59;77.15;;;53.80;;
43620;SDS011;29213;50.770;7.298;2023-07-29T10:29:30;36.90;;;26.00;;
43620;SDS011;29213;50.770;7.298;2023-07-29T10:31:58;54.03;;;37.70;;
43620;SDS011;29213;50.770;7.298;2023-07-29T10:34:27;26.90;;;18.60;;
43620;SDS011;29213;50.770;7.298;2023-07-29T10:36:53;27.60;;;19.92;;
43620;SDS011;29213;50.770;7.298;2023-07-29T10:39:20;23.58;;;15.60;;
43620;SDS011;29213;50.770;7.298;2023-07-29T10:42:01;25.15;;;16.60;;
43620;SDS011;29213;50.770;7.298;2023-07-29T10:47:26;13.20;;;9.18;;
43620;SDS011;29213;50.770;7.298;2023-07-29T10:49:52;14.60;;;10.18;;
43620;SDS011;29213;50.770;7.298;2023-07-29T10:55:00;10.50;;;5.70;;
43620;SDS011;29213;50.770;7.298;2023-07-29T10:57:31;11.65;;;8.15;;
43620;SDS011;29213;50.770;7.298;2023-07-29T10:59:57;14.43;;;9.00;;
43620;SDS011;29213;50.770;7.298;2023-07-29T11:02:28;8.00;;;5.05;;
43620;SDS011;29213;50.770;7.298;2023-07-29T11:05:07;10.15;;;7.10;;
43620;SDS011;29213;50.770;7.298;2023-07-29T11:07:47;8.75;;;5.78;;
43620;SDS011;29213;50.770;7.298;2023-07-29T11:10:14;6.07;;;3.92;;
43620;SDS011;29213;50.770;7.298;2023-07-29T11:12:44;3.95;;;2.17;;
43620;SDS011;29213;50.770;7.298;2023-07-29T11:20:27;2.60;;;1.55;;
43620;SDS011;29213;50.770;7.298;2023-07-29T11:22:54;3.22;;;1.60;;
43620;SDS011;29213;50.770;7.298;2023-07-29T11:25:22;3.45;;;1.40;;
43620;SDS011;29213;50.770;7.298;2023-07-29T11:27:48;4.78;;;1.95;;
43620;SDS011;29213;50.770;7.298;2023-07-29T11:30:16;2.70;;;1.50;;
43620;SDS011;29213;50.770;7.298;2023-07-29T11:32:43;2.30;;;1.33;;
43620;SDS011;29213;50.770;7.298;2023-07-29T11:35:13;2.30;;;1.30;;
43620;SDS011;29213;50.770;7.298;2023-07-29T11:37:40;5.10;;;1.67;;
43620;SDS011;29213;50.770;7.298;2023-07-29T11:40:07;2.60;;;1.48;;
43620;SDS011;29213;50.770;7.298;2023-07-29T11:42:35;5.15;;;1.67;;
43620;SDS011;29213;50.770;7.298;2023-07-29T11:45:02;2.60;;;1.42;;
43620;SDS011;29213;50.770;7.298;2023-07-29T11:47:29;3.00;;;1.60;;
43620;SDS011;29213;50.770;7.298;2023-07-29T11:49:57;6.03;;;1.50;;
43620;SDS011;29213;50.770;7.298;2023-07-29T11:52:23;2.60;;;1.40;;
43620;SDS011;29213;50.770;7.298;2023-07-29T11:54:49;3.35;;;1.50;;
43620;SDS011;29213;50.770;7.298;2023-07-29T11:57:15;3.17;;;1.70;;
43620;SDS011;29213;50.770;7.298;2023-07-29T11:59:41;3.00;;;1.60;;
43620;SDS011;29213;50.770;7.298;2023-07-29T12:02:14;3.28;;;1.52;;
43620;SDS011;29213;50.770;7.298;2023-07-29T12:04:41;2.88;;;1.50;;
43620;SDS011;29213;50.770;7.298;2023-07-29T12:07:08;2.45;;;1.40;;
43620;SDS011;29213;50.770;7.298;2023-07-29T12:09:34;3.40;;;1.67;;
43620;SDS011;29213;50.770;7.298;2023-07-29T12:12:01;2.70;;;1.48;;
43620;SDS011;29213;50.770;7.298;2023-07-29T12:14:28;2.42;;;1.40;;
43620;SDS011;29213;50.770;7.298;2023-07-29T12:16:54;2.60;;;1.40;;
43620;SDS011;29213;50.770;7.298;2023-07-29T12:19:19;3.65;;;1.25;;
43620;SDS011;29213;50.770;7.298;2023-07-29T12:21:47;3.47;;;1.58;;
43620;SDS011;29213;50.770;7.298;2023-07-29T12:24:13;2.90;;;1.50;;
43620;SDS011;29213;50.770;7.298;2023-07-29T12:26:42;2.97;;;1.48;;
43620;SDS011;29213;50.770;7.298;2023-07-29T12:29:17;2.67;;;1.40;;
43620;SDS011;29213;50.770;7.298;2023-07-29T12:31:47;2.42;;;1.33;;
43620;SDS011;29213;50.770;7.298;2023-07-29T12:34:19;2.85;;;1.50;;
43620;SDS011;29213;50.770;7.298;2023-07-29T12:36:46;2.95;;;1.55;;
43620;SDS011;29213;50.770;7.298;2023-07-29T12:41:58;2.78;;;1.48;;
43620;SDS011;29213;50.770;7.298;2023-07-29T12:44:34;2.60;;;1.40;;
43620;SDS011;29213;50.770;7.298;2023-07-29T12:47:01;3.05;;;1.48;;
43620;SDS011;29213;50.770;7.298;2023-07-29T12:49:28;2.20;;;1.27;;
43620;SDS011;29213;50.770;7.298;2023-07-29T12:51:55;3.25;;;1.63;;
43620;SDS011;29213;50.770;7.298;2023-07-29T12:54:21;2.90;;;1.45;;
43620;SDS011;29213;50.770;7.298;2023-07-29T12:56:47;2.45;;;1.30;;
43620;SDS011;29213;50.770;7.298;2023-07-29T12:59:12;2.72;;;1.45;;
43620;SDS011;29213;50.770;7.298;2023-07-29T13:01:37;2.83;;;1.55;;
43620;SDS011;29213;50.770;7.298;2023-07-29T13:04:03;2.92;;;1.60;;
43620;SDS011;29213;50.770;7.298;2023-07-29T13:06:28;2.58;;;1.38;;
43620;SDS011;29213;50.770;7.298;2023-07-29T13:08:54;2.67;;;1.50;;
43620;SDS011;29213;50.770;7.298;2023-07-29T13:11:19;2.63;;;1.50;;
43620;SDS011;29213;50.770;7.298;2023-07-29T13:13:45;2.60;;;1.33;;
43620;SDS011;29213;50.770;7.298;2023-07-29T13:16:10;2.80;;;1.50;;
43620;SDS011;29213;50.770;7.298;2023-07-29T13:18:37;2.75;;;1.58;;
43620;SDS011;29213;50.770;7.298;2023-07-29T13:21:02;3.15;;;1.48;;
43620;SDS011;29213;50.770;7.298;2023-07-29T13:23:28;2.83;;;1.48;;
43620;SDS011;29213;50.770;7.298;2023-07-29T13:25:55;2.30;;;1.30;;
43620;SDS011;29213;50.770;7.298;2023-07-29T13:28:23;1.90;;;1.10;;
43620;SDS011;29213;50.770;7.298;2023-07-29T13:30:48;2.50;;;1.30;;
43620;SDS011;29213;50.770;7.298;2023-07-29T13:33:14;2.40;;;1.35;;
43620;SDS011;29213;50.770;7.298;2023-07-29T13:35:39;2.58;;;1.30;;
43620;SDS011;29213;50.770;7.298;2023-07-29T13:38:05;2.58;;;1.50;;
43620;SDS011;29213;50.770;7.298;2023-07-29T13:40:31;2.50;;;1.38;;
43620;SDS011;29213;50.770;7.298;2023-07-29T13:42:56;2.75;;;1.55;;
43620;SDS011;29213;50.770;7.298;2023-07-29T13:45:22;2.90;;;1.70;;
43620;SDS011;29213;50.770;7.298;2023-07-29T13:47:48;3.10;;;1.63;;
43620;SDS011;29213;50.770;7.298;2023-07-29T13:50:15;2.92;;;1.70;;
43620;SDS011;29213;50.770;7.298;2023-07-29T13:52:41;3.13;;;1.60;;
43620;SDS011;29213;50.770;7.298;2023-07-29T13:55:06;2.97;;;1.50;;
43620;SDS011;29213;50.770;7.298;2023-07-29T13:57:32;2.70;;;1.50;;
43620;SDS011;29213;50.770;7.298;2023-07-29T13:59:58;2.92;;;1.50;;
43620;SDS011;29213;50.770;7.298;2023-07-29T14:02:23;3.17;;;1.50;;
43620;SDS011;29213;50.770;7.298;2023-07-29T14:04:49;2.70;;;1.48;;
43620;SDS011;29213;50.770;7.298;2023-07-29T14:07:14;2.63;;;1.50;;
43620;SDS011;29213;50.770;7.298;2023-07-29T14:09:39;2.40;;;1.48;;
43620;SDS011;29213;50.770;7.298;2023-07-29T14:12:06;2.75;;;1.50;;
43620;SDS011;29213;50.770;7.298;2023-07-29T14:14:31;3.00;;;1.63;;
43620;SDS011;29213;50.770;7.298;2023-07-29T14:16:57;3.80;;;2.17;;
43620;SDS011;29213;50.770;7.298;2023-07-29T14:19:23;3.33;;;1.90;;
43620;SDS011;29213;50.770;7.298;2023-07-29T14:21:48;3.13;;;1.70;;
43620;SDS011;29213;50.770;7.298;2023-07-29T14:24:14;3.80;;;1.67;;
43620;SDS011;29213;50.770;7.298;2023-07-29T14:26:40;3.05;;;1.60;;
43620;SDS011;29213;50.770;7.298;2023-07-29T14:29:06;2.90;;;1.60;;
43620;SDS011;29213;50.770;7.298;2023-07-29T14:31:32;2.53;;;1.38;;
43620;SDS011;29213;50.770;7.298;2023-07-29T14:33:57;3.05;;;1.50;;
43620;SDS011;29213;50.770;7.298;2023-07-29T14:36:23;3.38;;;1.70;;
43620;SDS011;29213;50.770;7.298;2023-07-29T14:38:49;2.92;;;1.60;;
43620;SDS011;29213;50.770;7.298;2023-07-29T14:41:14;2.50;;;1.50;;
43620;SDS011;29213;50.770;7.298;2023-07-29T14:43:39;2.90;;;1.55;;
43620;SDS011;29213;50.770;7.298;2023-07-29T14:46:05;3.15;;;1.50;;
43620;SDS011;29213;50.770;7.298;2023-07-29T14:48:30;3.58;;;1.70;;
43620;SDS011;29213;50.770;7.298;2023-07-29T14:50:56;2.70;;;1.50;;
43620;SDS011;29213;50.770;7.298;2023-07-29T14:53:22;3.60;;;1.58;;
43620;SDS011;29213;50.770;7.298;2023-07-29T14:55:47;3.83;;;1.50;;
43620;SDS011;29213;50.770;7.298;2023-07-29T14:58:12;2.60;;;1.50;;
43620;SDS011;29213;50.770;7.298;2023-07-29T15:00:38;3.10;;;1.70;;